createdAt,value
2022-08-01T00:00:46.642Z,21.30
2022-08-01T00:03:21.266Z,21.30
2022-08-01T00:05:53.776Z,21.30
2022-08-01T00:08:25.611Z,21.30
2022-08-01T00:11:00.337Z,21.20
2022-08-01T00:13:34.464Z,21.20
2022-08-01T00:16:06.344Z,21.10
2022-08-01T00:18:40.671Z,21.10
2022-08-01T00:21:12.690Z,21.10
2022-08-01T00:23:45.031Z,21.10
2022-08-01T00:26:16.978Z,21.10
2022-08-01T00:28:48.716Z,21.00
2022-08-01T00:31:21.322Z,21.00
2022-08-01T00:33:55.683Z,21.00
2022-08-01T00:36:27.387Z,21.00
2022-08-01T00:38:58.965Z,21.00
2022-08-01T00:41:30.390Z,21.00
2022-08-01T00:44:01.740Z,20.90
2022-08-01T00:46:33.429Z,20.90
2022-08-01T00:49:07.698Z,20.90
2022-08-01T00:51:43.674Z,20.90
2022-08-01T00:54:16.473Z,20.90
2022-08-01T00:56:49.349Z,20.80
2022-08-01T00:59:23.628Z,20.80
2022-08-01T01:01:58.390Z,20.80
2022-08-01T01:04:33.177Z,20.70
2022-08-01T01:07:18.708Z,20.70
2022-08-01T01:10:00.241Z,20.70
2022-08-01T01:12:38.679Z,20.70
2022-08-01T01:15:15.714Z,20.60
2022-08-01T01:17:53.392Z,20.60
2022-08-01T01:20:33.533Z,20.50
2022-08-01T01:23:26.342Z,20.50
2022-08-01T01:26:19.686Z,20.50
2022-08-01T01:29:19.332Z,20.50
2022-08-01T01:31:56.685Z,20.40
2022-08-01T01:34:29.748Z,20.40
2022-08-01T01:37:06.280Z,20.40
2022-08-01T01:39:39.205Z,20.40
2022-08-01T01:42:17.831Z,20.40
2022-08-01T01:44:53.202Z,20.40
2022-08-01T01:47:26.641Z,20.30
2022-08-01T01:49:59.600Z,20.20
2022-08-01T01:52:32.738Z,20.20
2022-08-01T01:55:11.468Z,20.20
2022-08-01T01:57:46.394Z,20.20
2022-08-01T02:00:21.407Z,20.10
2022-08-01T02:02:53.337Z,20.10
2022-08-01T02:05:24.421Z,20.10
2022-08-01T02:07:59.674Z,20.10
2022-08-01T02:10:31.165Z,20.10
2022-08-01T02:13:04.220Z,20.10
2022-08-01T02:15:59.869Z,20.10
2022-08-01T02:18:31.289Z,20.20
2022-08-01T02:21:03.232Z,20.20
2022-08-01T02:23:38.128Z,20.20
2022-08-01T02:26:14.656Z,20.10
2022-08-01T02:28:52.398Z,20.10
2022-08-01T02:31:26.873Z,20.10
2022-08-01T02:34:03.330Z,20.10
2022-08-01T02:36:38.129Z,20.10
2022-08-01T02:39:15.534Z,20.10
2022-08-01T02:41:54.294Z,20.00
2022-08-01T02:44:31.132Z,20.00
2022-08-01T02:47:07.068Z,20.00
2022-08-01T02:49:43.254Z,20.00
2022-08-01T02:52:21.098Z,20.00
2022-08-01T02:54:55.796Z,20.00
2022-08-01T02:57:39.434Z,19.90
2022-08-01T03:00:25.009Z,19.90
2022-08-01T03:02:58.988Z,20.00
2022-08-01T03:05:30.210Z,20.00
2022-08-01T03:08:02.799Z,19.90
2022-08-01T03:10:35.576Z,19.90
2022-08-01T03:13:07.724Z,19.90
2022-08-01T03:15:42.947Z,19.80
2022-08-01T03:18:18.327Z,19.90
2022-08-01T03:20:50.586Z,19.80
2022-08-01T03:23:22.377Z,19.80
2022-08-01T03:26:09.254Z,19.70
2022-08-01T03:28:41.261Z,19.60
2022-08-01T03:31:12.829Z,19.50
2022-08-01T03:33:45.743Z,19.50
2022-08-01T03:36:18.343Z,19.50
2022-08-01T03:38:49.709Z,19.50
2022-08-01T03:41:24.667Z,19.40
2022-08-01T03:44:00.998Z,19.40
2022-08-01T03:46:37.232Z,19.50
2022-08-01T03:49:18.107Z,19.40
2022-08-01T03:51:49.268Z,19.40
2022-08-01T03:54:21.781Z,19.40
2022-08-01T03:56:54.107Z,19.40
2022-08-01T03:59:25.888Z,19.40
2022-08-01T04:01:56.541Z,19.40
2022-08-01T04:04:30.038Z,19.40
2022-08-01T04:07:05.235Z,19.40
2022-08-01T04:09:36.175Z,19.40
2022-08-01T04:12:07.515Z,19.30
2022-08-01T04:14:42.804Z,19.30
2022-08-01T04:17:13.141Z,19.40
2022-08-01T04:19:46.645Z,19.40
2022-08-01T04:22:19.017Z,19.50
2022-08-01T04:24:56.944Z,19.50
2022-08-01T04:27:50.646Z,19.50
2022-08-01T04:30:26.809Z,19.50
2022-08-01T04:33:01.825Z,19.50
2022-08-01T04:36:02.072Z,19.60
2022-08-01T04:38:31.764Z,19.60
2022-08-01T04:41:08.490Z,19.60
2022-08-01T04:43:43.849Z,19.70
2022-08-01T04:46:15.183Z,19.70
2022-08-01T04:48:46.220Z,19.70
2022-08-01T04:51:23.178Z,19.80
2022-08-01T04:53:56.171Z,19.80
2022-08-01T04:56:26.486Z,19.90
2022-08-01T04:59:09.206Z,19.90
2022-08-01T05:01:44.133Z,19.90
2022-08-01T05:04:14.561Z,20.00
2022-08-01T05:06:47.360Z,19.90
2022-08-01T05:09:17.613Z,20.00
2022-08-01T05:11:47.828Z,20.00
2022-08-01T05:14:18.029Z,20.00
2022-08-01T05:16:49.068Z,20.10
2022-08-01T05:19:19.457Z,20.00
2022-08-01T05:21:53.269Z,20.10
2022-08-01T05:24:30.429Z,20.10
2022-08-01T05:27:01.576Z,20.10
2022-08-01T05:29:34.292Z,20.10
2022-08-01T05:32:04.683Z,20.10
2022-08-01T05:34:35.469Z,20.10
2022-08-01T05:37:08.562Z,20.20
2022-08-01T05:39:38.898Z,20.10
2022-08-01T05:42:09.448Z,20.10
2022-08-01T05:44:39.829Z,20.10
2022-08-01T05:47:10.484Z,20.10
2022-08-01T05:49:40.773Z,20.10
2022-08-01T05:52:14.385Z,20.10
2022-08-01T05:54:44.633Z,20.10
2022-08-01T05:57:15.274Z,20.10
2022-08-01T05:59:45.609Z,20.20
2022-08-01T06:02:15.945Z,20.10
2022-08-01T06:04:46.930Z,20.00
2022-08-01T06:07:19.885Z,20.10
2022-08-01T06:09:50.151Z,20.10
2022-08-01T06:12:20.413Z,20.10
2022-08-01T06:14:50.607Z,20.10
2022-08-01T06:17:20.762Z,20.10
2022-08-01T06:19:51.105Z,20.10
2022-08-01T06:22:23.916Z,20.10
2022-08-01T06:24:54.627Z,20.10
2022-08-01T06:27:26.028Z,20.10
2022-08-01T06:29:57.768Z,20.10
2022-08-01T06:32:28.510Z,20.10
2022-08-01T06:34:59.309Z,20.10
2022-08-01T06:37:36.662Z,20.10
2022-08-01T06:40:08.126Z,20.10
2022-08-01T06:42:39.382Z,20.20
2022-08-01T06:45:12.589Z,20.20
2022-08-01T06:47:43.962Z,20.20
2022-08-01T06:50:15.808Z,20.20
2022-08-01T06:52:48.889Z,20.20
2022-08-01T06:55:20.881Z,20.20
2022-08-01T06:57:53.477Z,20.20
2022-08-01T07:00:26.009Z,20.30
2022-08-01T07:02:59.694Z,20.30
2022-08-01T07:05:32.179Z,20.30
2022-08-01T07:08:05.059Z,20.30
2022-08-01T07:10:35.448Z,20.40
2022-08-01T07:13:05.770Z,20.40
2022-08-01T07:15:36.008Z,20.40
2022-08-01T07:18:06.335Z,20.40
2022-08-01T07:20:50.343Z,20.50
2022-08-01T07:23:33.079Z,20.60
2022-08-01T07:26:05.166Z,20.70
2022-08-01T07:28:35.650Z,20.60
2022-08-01T07:31:14.500Z,20.70
2022-08-01T07:33:48.788Z,20.60
2022-08-01T07:36:19.909Z,20.70
2022-08-01T07:38:53.030Z,20.70
2022-08-01T07:41:52.758Z,20.70
2022-08-01T07:44:13.665Z,20.60
2022-08-01T07:46:43.878Z,20.60
2022-08-01T07:49:14.496Z,20.60
2022-08-01T07:52:13.617Z,20.60
2022-08-01T07:54:37.995Z,20.60
2022-08-01T07:57:08.827Z,20.60
2022-08-01T07:59:39.152Z,20.70
2022-08-01T08:02:10.278Z,20.80
2022-08-01T08:04:42.855Z,20.80
2022-08-01T08:07:16.266Z,20.70
2022-08-01T08:09:51.155Z,20.70
2022-08-01T08:12:28.360Z,20.60
2022-08-01T08:15:01.509Z,20.60
2022-08-01T08:17:35.884Z,20.50
2022-08-01T08:20:09.829Z,20.50
2022-08-01T08:22:41.404Z,20.60
2022-08-01T08:25:14.657Z,20.50
2022-08-01T08:27:47.120Z,20.50
2022-08-01T08:30:18.387Z,20.60
2022-08-01T08:32:49.040Z,20.70
2022-08-01T08:35:23.256Z,20.70
2022-08-01T08:38:09.941Z,20.80
2022-08-01T08:40:44.510Z,21.00
2022-08-01T08:43:15.207Z,21.00
2022-08-01T08:45:58.980Z,21.10
2022-08-01T08:48:31.114Z,21.10
2022-08-01T08:51:04.639Z,21.00
2022-08-01T08:53:37.067Z,21.00
2022-08-01T08:56:12.245Z,21.00
2022-08-01T08:58:44.151Z,20.90
2022-08-01T09:01:15.331Z,20.80
2022-08-01T09:03:45.488Z,20.80
2022-08-01T09:06:15.851Z,20.80
2022-08-01T09:08:46.320Z,20.70
2022-08-01T09:11:22.654Z,20.70
2022-08-01T09:14:11.745Z,20.80
2022-08-01T09:16:48.824Z,21.00
2022-08-01T09:19:40.138Z,21.10
2022-08-01T09:22:13.918Z,21.30
2022-08-01T09:24:45.412Z,21.40
2022-08-01T09:27:26.630Z,21.50
2022-08-01T09:30:01.017Z,21.70
2022-08-01T09:32:36.336Z,21.80
2022-08-01T09:35:31.802Z,21.90
2022-08-01T09:38:20.567Z,21.90
2022-08-01T09:40:53.502Z,21.70
2022-08-01T09:43:29.088Z,21.60
2022-08-01T09:46:00.846Z,21.50
2022-08-01T09:48:32.655Z,21.60
2022-08-01T09:51:07.354Z,21.60
2022-08-01T09:53:51.693Z,21.60
2022-08-01T09:56:25.365Z,21.70
2022-08-01T09:59:02.309Z,21.80
2022-08-01T10:01:46.358Z,21.70
2022-08-01T10:04:19.643Z,21.70
2022-08-01T10:06:55.247Z,21.60
2022-08-01T10:09:40.208Z,21.60
2022-08-01T10:12:15.523Z,21.50
2022-08-01T10:14:51.277Z,21.60
2022-08-01T10:17:23.779Z,21.70
2022-08-01T10:20:28.956Z,21.70
2022-08-01T10:23:06.825Z,21.80
2022-08-01T10:25:46.973Z,21.70
2022-08-01T10:28:21.734Z,21.60
2022-08-01T10:30:57.260Z,21.60
2022-08-01T10:33:50.612Z,21.60
2022-08-01T10:36:22.697Z,21.50
2022-08-01T10:38:53.511Z,21.40
2022-08-01T10:41:25.838Z,21.40
2022-08-01T10:43:59.031Z,21.30
2022-08-01T10:46:33.884Z,21.20
2022-08-01T10:49:09.308Z,21.30
2022-08-01T10:51:51.262Z,21.30
2022-08-01T10:54:25.053Z,21.40
2022-08-01T10:56:57.550Z,21.40
2022-08-01T10:59:50.696Z,21.40
2022-08-01T11:02:35.345Z,21.40
2022-08-01T11:05:14.271Z,21.30
2022-08-01T11:07:52.362Z,21.30
2022-08-01T11:10:29.749Z,21.30
2022-08-01T11:13:02.149Z,21.40
2022-08-01T11:15:34.651Z,21.40
2022-08-01T11:18:37.880Z,21.60
2022-08-01T11:21:57.912Z,21.80
2022-08-01T11:23:59.484Z,21.90
2022-08-01T11:26:30.369Z,21.90
2022-08-01T11:29:22.323Z,21.80
2022-08-01T11:31:54.868Z,21.70
2022-08-01T11:34:57.254Z,21.70
2022-08-01T11:37:30.672Z,21.70
2022-08-01T11:40:20.535Z,21.60
2022-08-01T11:42:54.504Z,21.50
2022-08-01T11:45:26.009Z,21.40
2022-08-01T11:47:57.116Z,21.50
2022-08-01T11:50:40.385Z,21.60
2022-08-01T11:53:16.971Z,21.60
2022-08-01T11:55:54.185Z,21.60
2022-08-01T11:58:29.280Z,21.60
2022-08-01T12:01:03.307Z,21.50
2022-08-01T12:03:36.757Z,21.40
2022-08-01T12:06:09.832Z,21.20
2022-08-01T12:08:40.740Z,21.30
2022-08-01T12:11:11.033Z,21.30
2022-08-01T12:13:45.964Z,21.20
2022-08-01T12:16:16.623Z,21.00
2022-08-01T12:18:47.552Z,20.90
2022-08-01T12:21:20.478Z,20.80
2022-08-01T12:24:04.097Z,20.70
2022-08-01T12:26:44.571Z,20.80
2022-08-01T12:29:14.819Z,20.80
2022-08-01T12:31:45.152Z,21.00
2022-08-01T12:34:30.876Z,21.10
2022-08-01T12:37:06.425Z,21.00
2022-08-01T12:39:40.060Z,21.10
2022-08-01T12:42:12.239Z,21.20
2022-08-01T12:44:43.757Z,21.20
2022-08-01T12:47:16.077Z,21.40
2022-08-01T12:49:48.351Z,21.50
2022-08-01T12:52:27.261Z,21.60
2022-08-01T12:55:14.830Z,21.60
2022-08-01T12:57:51.077Z,21.70
2022-08-01T13:00:27.988Z,21.70
2022-08-01T13:03:07.024Z,21.70
2022-08-01T13:05:51.988Z,21.60
2022-08-01T13:08:29.202Z,21.50
2022-08-01T13:11:06.006Z,21.40
2022-08-01T13:13:44.214Z,21.40
2022-08-01T13:16:25.943Z,21.40
2022-08-01T13:19:05.939Z,21.40
2022-08-01T13:21:53.856Z,21.30
2022-08-01T13:24:31.914Z,21.30
2022-08-01T13:27:05.138Z,21.40
2022-08-01T13:29:39.138Z,21.50
2022-08-01T13:32:27.604Z,21.50
2022-08-01T13:35:06.687Z,21.70
2022-08-01T13:37:39.026Z,21.60
2022-08-01T13:40:14.792Z,21.70
2022-08-01T13:42:45.014Z,21.70
2022-08-01T13:45:15.344Z,21.60
2022-08-01T13:48:11.737Z,21.60
2022-08-01T13:50:36.958Z,21.60
2022-08-01T13:53:07.303Z,21.60
2022-08-01T13:55:40.976Z,21.60
2022-08-01T13:58:11.266Z,21.60
2022-08-01T14:00:41.584Z,21.70
2022-08-01T14:03:12.821Z,21.70
2022-08-01T14:05:43.624Z,21.70
2022-08-01T14:08:14.876Z,21.80
2022-08-01T14:10:49.936Z,21.80
2022-08-01T14:13:20.497Z,21.90
2022-08-01T14:15:54.296Z,22.00
2022-08-01T14:18:24.853Z,22.00
2022-08-01T14:20:58.305Z,22.10
2022-08-01T14:23:36.047Z,22.10
2022-08-01T14:26:12.232Z,22.10
2022-08-01T14:28:43.201Z,22.20
2022-08-01T14:31:13.405Z,22.20
2022-08-01T14:33:43.709Z,22.20
2022-08-01T14:36:30.510Z,22.20
2022-08-01T14:39:01.877Z,22.20
2022-08-01T14:41:35.388Z,22.30
2022-08-01T14:44:06.897Z,22.30
2022-08-01T14:46:37.248Z,22.30
2022-08-01T14:49:12.457Z,22.30
2022-08-01T14:51:42.927Z,22.30
2022-08-01T14:54:13.125Z,22.40
2022-08-01T14:56:47.662Z,22.40
2022-08-01T14:59:21.566Z,22.60
2022-08-01T15:01:52.260Z,22.80
2022-08-01T15:04:22.846Z,22.90
2022-08-01T15:06:53.155Z,23.20
2022-08-01T15:09:24.359Z,23.20
2022-08-01T15:11:57.215Z,23.10
2022-08-01T15:14:39.925Z,23.30
2022-08-01T15:17:10.179Z,23.20
2022-08-01T15:19:42.425Z,23.20
2022-08-01T15:22:13.057Z,23.10
2022-08-01T15:24:43.621Z,22.90
2022-08-01T15:27:16.541Z,22.60
2022-08-01T15:29:46.917Z,22.50
2022-08-01T15:32:17.320Z,22.50
2022-08-01T15:34:48.150Z,22.50
2022-08-01T15:37:18.813Z,22.50
2022-08-01T15:39:49.244Z,22.60
2022-08-01T15:42:25.657Z,22.70
2022-08-01T15:44:57.429Z,22.70
2022-08-01T15:47:27.702Z,22.60
2022-08-01T15:50:00.622Z,22.50
2022-08-01T15:52:31.906Z,22.50
2022-08-01T15:55:02.794Z,22.60
2022-08-01T15:57:35.801Z,22.60
2022-08-01T16:00:07.490Z,22.60
2022-08-01T16:02:37.752Z,22.60
2022-08-01T16:05:09.500Z,22.70
2022-08-01T16:07:58.103Z,22.70
2022-08-01T16:10:30.342Z,22.80
2022-08-01T16:13:07.194Z,22.90
2022-08-01T16:15:38.271Z,22.90
2022-08-01T16:18:10.233Z,22.90
2022-08-01T16:20:45.363Z,22.90
2022-08-01T16:23:18.222Z,22.80
2022-08-01T16:25:48.465Z,22.80
2022-08-01T16:28:21.556Z,22.80
2022-08-01T16:31:15.371Z,22.80
2022-08-01T16:33:50.074Z,22.70
2022-08-01T16:36:25.592Z,22.70
2022-08-01T16:38:56.293Z,22.70
2022-08-01T16:41:27.228Z,22.70
2022-08-01T16:44:00.241Z,22.70
2022-08-01T16:46:30.536Z,22.70
2022-08-01T16:49:01.813Z,22.70
2022-08-01T16:51:32.690Z,22.70
2022-08-01T16:54:03.400Z,22.70
2022-08-01T16:56:34.168Z,22.70
2022-08-01T16:59:06.949Z,22.70
2022-08-01T17:02:03.313Z,22.60
2022-08-01T17:04:28.714Z,22.60
2022-08-01T17:06:59.055Z,22.60
2022-08-01T17:09:29.296Z,22.60
2022-08-01T17:11:59.589Z,22.60
2022-08-01T17:14:33.722Z,22.60
2022-08-01T17:17:04.234Z,22.60
2022-08-01T17:19:34.825Z,22.60
2022-08-01T17:22:05.504Z,22.50
2022-08-01T17:24:35.965Z,22.50
2022-08-01T17:27:12.157Z,22.50
2022-08-01T17:29:45.893Z,22.50
2022-08-01T17:32:16.877Z,22.50
2022-08-01T17:34:47.309Z,22.50
2022-08-01T17:37:17.468Z,22.40
2022-08-01T17:39:47.700Z,22.40
2022-08-01T17:42:18.004Z,22.40
2022-08-01T17:44:52.176Z,22.50
2022-08-01T17:47:48.394Z,22.40
2022-08-01T17:50:16.044Z,22.40
2022-08-01T17:52:46.407Z,22.40
2022-08-01T17:55:55.698Z,22.40
2022-08-01T17:58:07.149Z,22.40
2022-08-01T18:00:40.415Z,22.30
2022-08-01T18:03:12.391Z,22.30
2022-08-01T18:05:43.265Z,22.30
2022-08-01T18:08:13.373Z,22.20
2022-08-01T18:10:44.440Z,22.20
2022-08-01T18:13:16.734Z,22.20
2022-08-01T18:15:50.515Z,22.20
2022-08-01T18:18:32.797Z,22.10
2022-08-01T18:21:05.057Z,22.10
2022-08-01T18:23:36.321Z,22.10
2022-08-01T18:26:08.869Z,22.10
2022-08-01T18:28:46.165Z,22.10
2022-08-01T18:31:20.881Z,22.10
2022-08-01T18:33:51.694Z,22.20
2022-08-01T18:36:33.397Z,22.10
2022-08-01T18:39:10.127Z,22.10
2022-08-01T18:41:43.406Z,22.00
2022-08-01T18:44:13.832Z,22.00
2022-08-01T18:46:47.225Z,22.00
2022-08-01T18:49:17.638Z,21.90
2022-08-01T18:51:48.502Z,21.90
2022-08-01T18:54:19.641Z,21.80
2022-08-01T18:56:49.950Z,21.70
2022-08-01T18:59:20.514Z,21.70
2022-08-01T19:01:53.378Z,21.70
2022-08-01T19:04:23.681Z,21.60
2022-08-01T19:06:53.989Z,21.60
2022-08-01T19:09:24.350Z,21.60
2022-08-01T19:11:54.464Z,21.60
2022-08-01T19:14:24.806Z,21.50
2022-08-01T19:16:57.982Z,21.50
2022-08-01T19:19:28.410Z,21.40
2022-08-01T19:21:59.071Z,21.40
2022-08-01T19:24:26.782Z,21.30
2022-08-01T19:27:05.143Z,21.30
2022-08-01T19:29:43.012Z,21.20
2022-08-01T19:32:15.937Z,21.20
2022-08-01T19:34:54.764Z,21.20
2022-08-01T19:37:27.345Z,21.20
2022-08-01T19:39:58.811Z,21.20
2022-08-01T19:42:30.413Z,21.10
2022-08-01T19:45:02.513Z,21.20
2022-08-01T19:47:51.014Z,21.10
2022-08-01T19:50:26.675Z,21.10
2022-08-01T19:52:59.001Z,21.10
2022-08-01T19:55:31.109Z,21.10
2022-08-01T19:58:25.682Z,21.10
2022-08-01T20:00:53.178Z,21.00
2022-08-01T20:03:28.398Z,21.00
2022-08-01T20:05:59.249Z,20.90
2022-08-01T20:08:30.586Z,20.90
2022-08-01T20:11:10.355Z,20.80
2022-08-01T20:13:42.875Z,20.70
2022-08-01T20:16:13.217Z,20.70
2022-08-01T20:18:46.347Z,20.70
2022-08-01T20:21:17.369Z,20.60
2022-08-01T20:23:49.420Z,20.60
2022-08-01T20:26:20.451Z,20.60
2022-08-01T20:28:52.197Z,20.50
2022-08-01T20:31:24.408Z,20.50
2022-08-01T20:33:59.404Z,20.50
2022-08-01T20:36:31.544Z,20.40
2022-08-01T20:39:05.329Z,20.30
2022-08-01T20:41:39.516Z,20.30
2022-08-01T20:44:11.953Z,20.20
2022-08-01T20:46:42.495Z,20.20
2022-08-01T20:49:16.091Z,20.20
2022-08-01T20:51:48.950Z,20.20
2022-08-01T20:54:19.374Z,20.10
2022-08-01T20:56:58.393Z,20.10
2022-08-01T20:59:39.513Z,20.10
2022-08-01T21:02:37.973Z,20.00
2022-08-01T21:05:13.764Z,20.00
2022-08-01T21:07:51.569Z,20.00
2022-08-01T21:10:27.115Z,19.90
2022-08-01T21:13:06.368Z,19.80
2022-08-01T21:16:07.390Z,19.80
2022-08-01T21:18:40.928Z,19.80
2022-08-01T21:21:19.775Z,19.80
2022-08-01T21:23:57.066Z,19.80
2022-08-01T21:26:28.207Z,19.70
2022-08-01T21:29:02.351Z,19.60
2022-08-01T21:31:40.219Z,19.60
2022-08-01T21:34:12.429Z,19.50
2022-08-01T21:36:48.861Z,19.50
2022-08-01T21:39:19.825Z,19.40
2022-08-01T21:41:56.042Z,19.40
2022-08-01T21:44:37.044Z,19.30
2022-08-01T21:47:11.920Z,19.20
2022-08-01T21:49:42.932Z,19.20
2022-08-01T21:52:22.853Z,19.10
2022-08-01T21:55:05.141Z,19.00
2022-08-01T21:58:06.992Z,19.00
2022-08-01T22:00:43.456Z,19.00
2022-08-01T22:03:25.298Z,18.90
2022-08-01T22:05:57.520Z,18.80
2022-08-01T22:08:34.757Z,18.80
2022-08-01T22:11:09.341Z,18.80
2022-08-01T22:13:40.564Z,18.70
2022-08-01T22:16:13.198Z,18.70
2022-08-01T22:18:43.774Z,18.70
2022-08-01T22:21:14.401Z,18.70
2022-08-01T22:23:47.374Z,18.70
2022-08-01T22:26:17.699Z,18.70
2022-08-01T22:28:48.092Z,18.60
2022-08-01T22:31:19.401Z,18.50
2022-08-01T22:33:50.244Z,18.50
2022-08-01T22:36:21.253Z,18.50
2022-08-01T22:38:54.068Z,18.50
2022-08-01T22:42:01.280Z,18.40
2022-08-01T22:44:30.849Z,18.40
2022-08-01T22:47:10.212Z,18.30
2022-08-01T22:49:45.772Z,18.20
2022-08-01T22:52:21.865Z,18.20
2022-08-01T22:55:01.351Z,18.20
2022-08-01T22:57:47.259Z,18.10
2022-08-01T23:00:20.776Z,18.10
2022-08-01T23:02:57.086Z,18.00
2022-08-01T23:05:29.564Z,17.90
2022-08-01T23:08:02.272Z,17.90
2022-08-01T23:10:35.457Z,17.80
2022-08-01T23:13:07.517Z,17.70
2022-08-01T23:15:38.889Z,17.60
2022-08-01T23:18:10.233Z,17.70
2022-08-01T23:20:40.860Z,17.80
2022-08-01T23:23:12.876Z,17.70
2022-08-01T23:25:50.779Z,17.70
2022-08-01T23:28:21.840Z,17.70
2022-08-01T23:30:52.990Z,17.70
2022-08-01T23:33:23.533Z,17.70
2022-08-01T23:35:54.390Z,17.60
2022-08-01T23:38:24.761Z,17.40
2022-08-01T23:40:57.686Z,17.30
2022-08-01T23:43:28.146Z,17.30
2022-08-01T23:46:03.845Z,17.40
2022-08-01T23:48:36.391Z,17.30
2022-08-01T23:51:09.386Z,17.30
2022-08-01T23:53:41.714Z,17.30
2022-08-01T23:56:21.938Z,17.30
2022-08-01T23:58:55.889Z,17.10
